sensor_id;sensor_type;location;lat;lon;timestamp;temperature;humidity
30889;DHT22;51092;50.874;7.024;2022-11-24T00:00:31;7.90;99.90
30889;DHT22;51092;50.874;7.024;2022-11-24T00:01:34;7.90;99.90
30889;DHT22;51092;50.874;7.024;2022-11-24T00:02:36;7.90;99.90
30889;DHT22;51092;50.874;7.024;2022-11-24T00:03:38;8.00;99.90
30889;DHT22;51092;50.874;7.024;2022-11-24T00:04:41;8.00;99.90
30889;DHT22;51092;50.874;7.024;2022-11-24T00:05:42;8.00;99.90
30889;DHT22;51092;50.874;7.024;2022-11-24T00:06:54;8.00;99.90
30889;DHT22;51092;50.874;7.024;2022-11-24T00:07:56;8.00;99.90
30889;DHT22;51092;50.874;7.024;2022-11-24T00:09:00;8.10;99.90
30889;DHT22;51092;50.874;7.024;2022-11-24T00:10:03;8.10;99.90
30889;DHT22;51092;50.874;7.024;2022-11-24T00:11:06;8.10;99.90
30889;DHT22;51092;50.874;7.024;2022-11-24T00:12:09;8.00;99.90
30889;DHT22;51092;50.874;7.024;2022-11-24T00:13:10;8.10;99.90
30889;DHT22;51092;50.874;7.024;2022-11-24T00:14:13;8.20;99.90
30889;DHT22;51092;50.874;7.024;2022-11-24T00:15:14;8.20;99.90
30889;DHT22;51092;50.874;7.024;2022-11-24T00:16:17;8.20;99.90
30889;DHT22;51092;50.874;7.024;2022-11-24T00:17:19;8.20;99.90
30889;DHT22;51092;50.874;7.024;2022-11-24T00:18:22;8.20;99.90
30889;DHT22;51092;50.874;7.024;2022-11-24T00:19:23;8.20;99.90
30889;DHT22;51092;50.874;7.024;2022-11-24T00:20:26;8.30;99.90
30889;DHT22;51092;50.874;7.024;2022-11-24T00:21:30;8.30;99.90
30889;DHT22;51092;50.874;7.024;2022-11-24T00:22:33;8.30;99.90
30889;DHT22;51092;50.874;7.024;2022-11-24T00:23:35;8.20;99.90
30889;DHT22;51092;50.874;7.024;2022-11-24T00:24:39;8.30;99.90
30889;DHT22;51092;50.874;7.024;2022-11-24T00:25:41;8.20;99.90
30889;DHT22;51092;50.874;7.024;2022-11-24T00:26:43;8.30;99.90
30889;DHT22;51092;50.874;7.024;2022-11-24T00:27:46;8.30;99.90
30889;DHT22;51092;50.874;7.024;2022-11-24T00:28:51;8.30;99.90
30889;DHT22;51092;50.874;7.024;2022-11-24T00:29:53;8.30;99.90
30889;DHT22;51092;50.874;7.024;2022-11-24T00:30:55;8.40;99.90
30889;DHT22;51092;50.874;7.024;2022-11-24T00:31:59;8.30;99.90
30889;DHT22;51092;50.874;7.024;2022-11-24T00:33:03;8.30;99.90
30889;DHT22;51092;50.874;7.024;2022-11-24T00:34:08;8.40;99.90
30889;DHT22;51092;50.874;7.024;2022-11-24T00:35:10;8.30;99.90
30889;DHT22;51092;50.874;7.024;2022-11-24T00:36:13;8.30;99.90
30889;DHT22;51092;50.874;7.024;2022-11-24T00:37:15;8.30;99.90
30889;DHT22;51092;50.874;7.024;2022-11-24T00:38:17;8.20;99.90
30889;DHT22;51092;50.874;7.024;2022-11-24T00:39:19;8.20;99.90
30889;DHT22;51092;50.874;7.024;2022-11-24T00:40:23;8.20;99.90
30889;DHT22;51092;50.874;7.024;2022-11-24T00:41:26;8.20;99.90
30889;DHT22;51092;50.874;7.024;2022-11-24T00:42:28;8.20;99.90
30889;DHT22;51092;50.874;7.024;2022-11-24T00:43:30;8.20;99.90
30889;DHT22;51092;50.874;7.024;2022-11-24T00:44:32;8.20;99.90
30889;DHT22;51092;50.874;7.024;2022-11-24T00:45:33;8.10;99.90
30889;DHT22;51092;50.874;7.024;2022-11-24T00:46:57;8.10;99.90
30889;DHT22;51092;50.874;7.024;2022-11-24T00:47:59;8.10;99.90
30889;DHT22;51092;50.874;7.024;2022-11-24T00:49:01;8.00;99.90
30889;DHT22;51092;50.874;7.024;2022-11-24T00:50:05;8.10;99.90
30889;DHT22;51092;50.874;7.024;2022-11-24T00:51:08;8.10;99.90
30889;DHT22;51092;50.874;7.024;2022-11-24T00:52:11;8.00;99.90
30889;DHT22;51092;50.874;7.024;2022-11-24T00:53:14;8.00;99.90
30889;DHT22;51092;50.874;7.024;2022-11-24T00:54:20;8.00;99.90
30889;DHT22;51092;50.874;7.024;2022-11-24T00:55:24;8.00;99.90
30889;DHT22;51092;50.874;7.024;2022-11-24T00:56:26;8.00;99.90
30889;DHT22;51092;50.874;7.024;2022-11-24T00:57:29;8.00;99.90
30889;DHT22;51092;50.874;7.024;2022-11-24T00:58:31;8.00;99.90
30889;DHT22;51092;50.874;7.024;2022-11-24T00:59:34;7.90;99.90
30889;DHT22;51092;50.874;7.024;2022-11-24T01:00:36;7.90;99.90
30889;DHT22;51092;50.874;7.024;2022-11-24T01:01:38;7.90;99.90
30889;DHT22;51092;50.874;7.024;2022-11-24T01:02:40;7.90;99.90
30889;DHT22;51092;50.874;7.024;2022-11-24T01:03:43;7.90;99.90
30889;DHT22;51092;50.874;7.024;2022-11-24T01:04:44;7.80;99.90
30889;DHT22;51092;50.874;7.024;2022-11-24T01:05:47;7.80;99.90
30889;DHT22;51092;50.874;7.024;2022-11-24T01:06:48;7.80;99.90
30889;DHT22;51092;50.874;7.024;2022-11-24T01:07:51;7.70;99.90
30889;DHT22;51092;50.874;7.024;2022-11-24T01:08:55;7.70;99.90
30889;DHT22;51092;50.874;7.024;2022-11-24T01:10:01;7.70;99.90
30889;DHT22;51092;50.874;7.024;2022-11-24T01:11:12;7.70;99.90
30889;DHT22;51092;50.874;7.024;2022-11-24T01:12:15;7.60;99.90
30889;DHT22;51092;50.874;7.024;2022-11-24T01:13:17;7.60;99.90
30889;DHT22;51092;50.874;7.024;2022-11-24T01:14:23;7.50;99.90
30889;DHT22;51092;50.874;7.024;2022-11-24T01:15:25;7.50;99.90
30889;DHT22;51092;50.874;7.024;2022-11-24T01:16:32;7.40;99.90
30889;DHT22;51092;50.874;7.024;2022-11-24T01:17:35;7.50;99.90
30889;DHT22;51092;50.874;7.024;2022-11-24T01:18:37;7.50;99.90
30889;DHT22;51092;50.874;7.024;2022-11-24T01:19:42;7.50;99.90
30889;DHT22;51092;50.874;7.024;2022-11-24T01:20:47;7.50;99.90
30889;DHT22;51092;50.874;7.024;2022-11-24T01:21:49;7.50;99.90
30889;DHT22;51092;50.874;7.024;2022-11-24T01:22:51;7.40;99.90
30889;DHT22;51092;50.874;7.024;2022-11-24T01:23:53;7.40;99.90
30889;DHT22;51092;50.874;7.024;2022-11-24T01:24:55;7.40;99.90
30889;DHT22;51092;50.874;7.024;2022-11-24T01:25:56;7.40;99.90
30889;DHT22;51092;50.874;7.024;2022-11-24T01:26:59;7.40;99.90
30889;DHT22;51092;50.874;7.024;2022-11-24T01:28:00;7.40;99.90
30889;DHT22;51092;50.874;7.024;2022-11-24T01:29:03;7.40;99.90
30889;DHT22;51092;50.874;7.024;2022-11-24T01:30:08;7.40;99.90
30889;DHT22;51092;50.874;7.024;2022-11-24T01:31:13;7.40;99.90
30889;DHT22;51092;50.874;7.024;2022-11-24T01:32:14;7.40;99.90
30889;DHT22;51092;50.874;7.024;2022-11-24T01:33:17;7.40;99.90
30889;DHT22;51092;50.874;7.024;2022-11-24T01:34:19;7.50;99.90
30889;DHT22;51092;50.874;7.024;2022-11-24T01:35:22;7.50;99.90
30889;DHT22;51092;50.874;7.024;2022-11-24T01:36:23;7.50;99.90
30889;DHT22;51092;50.874;7.024;2022-11-24T01:37:26;7.60;99.90
30889;DHT22;51092;50.874;7.024;2022-11-24T01:38:27;7.60;99.90
30889;DHT22;51092;50.874;7.024;2022-11-24T01:39:30;7.60;99.90
30889;DHT22;51092;50.874;7.024;2022-11-24T01:40:32;7.60;99.90
30889;DHT22;51092;50.874;7.024;2022-11-24T01:41:34;7.60;99.90
30889;DHT22;51092;50.874;7.024;2022-11-24T01:42:47;7.70;99.90
30889;DHT22;51092;50.874;7.024;2022-11-24T01:43:51;7.60;99.90
30889;DHT22;51092;50.874;7.024;2022-11-24T01:45:26;7.60;99.90
30889;DHT22;51092;50.874;7.024;2022-11-24T01:46:31;7.70;99.90
30889;DHT22;51092;50.874;7.024;2022-11-24T01:47:41;7.70;99.90
30889;DHT22;51092;50.874;7.024;2022-11-24T01:48:47;7.70;99.90
30889;DHT22;51092;50.874;7.024;2022-11-24T01:49:52;7.70;99.90
30889;DHT22;51092;50.874;7.024;2022-11-24T01:51:01;7.60;99.90
30889;DHT22;51092;50.874;7.024;2022-11-24T01:52:05;7.60;99.90
30889;DHT22;51092;50.874;7.024;2022-11-24T01:53:11;7.60;99.90
30889;DHT22;51092;50.874;7.024;2022-11-24T01:54:17;7.60;99.90
30889;DHT22;51092;50.874;7.024;2022-11-24T01:55:28;7.60;99.90
30889;DHT22;51092;50.874;7.024;2022-11-24T01:56:33;7.50;99.90
30889;DHT22;51092;50.874;7.024;2022-11-24T01:57:39;7.50;99.90
30889;DHT22;51092;50.874;7.024;2022-11-24T01:58:57;7.50;99.90
30889;DHT22;51092;50.874;7.024;2022-11-24T02:00:05;7.50;99.90
30889;DHT22;51092;50.874;7.024;2022-11-24T02:01:07;7.50;99.90
30889;DHT22;51092;50.874;7.024;2022-11-24T02:02:11;7.50;99.90
30889;DHT22;51092;50.874;7.024;2022-11-24T02:03:15;7.50;99.90
30889;DHT22;51092;50.874;7.024;2022-11-24T02:04:22;7.50;99.90
30889;DHT22;51092;50.874;7.024;2022-11-24T02:05:28;7.50;99.90
30889;DHT22;51092;50.874;7.024;2022-11-24T02:06:32;7.40;99.90
30889;DHT22;51092;50.874;7.024;2022-11-24T02:07:35;7.40;99.90
30889;DHT22;51092;50.874;7.024;2022-11-24T02:08:44;7.40;99.90
30889;DHT22;51092;50.874;7.024;2022-11-24T02:09:50;7.40;99.90
30889;DHT22;51092;50.874;7.024;2022-11-24T02:10:53;7.40;99.90
30889;DHT22;51092;50.874;7.024;2022-11-24T02:11:54;7.40;99.90
30889;DHT22;51092;50.874;7.024;2022-11-24T02:13:00;7.40;99.90
30889;DHT22;51092;50.874;7.024;2022-11-24T02:14:06;7.40;99.90
30889;DHT22;51092;50.874;7.024;2022-11-24T02:15:09;7.40;99.90
30889;DHT22;51092;50.874;7.024;2022-11-24T02:16:12;7.30;99.90
30889;DHT22;51092;50.874;7.024;2022-11-24T02:17:16;7.40;99.90
30889;DHT22;51092;50.874;7.024;2022-11-24T02:18:18;7.40;99.90
30889;DHT22;51092;50.874;7.024;2022-11-24T02:19:28;7.40;99.90
30889;DHT22;51092;50.874;7.024;2022-11-24T02:20:31;7.40;99.90
30889;DHT22;51092;50.874;7.024;2022-11-24T02:21:34;7.40;99.90
30889;DHT22;51092;50.874;7.024;2022-11-24T02:22:43;7.50;99.90
30889;DHT22;51092;50.874;7.024;2022-11-24T02:23:53;7.40;99.90
30889;DHT22;51092;50.874;7.024;2022-11-24T02:25:00;7.50;99.90
30889;DHT22;51092;50.874;7.024;2022-11-24T02:26:13;7.50;99.90
30889;DHT22;51092;50.874;7.024;2022-11-24T02:27:19;7.60;99.90
30889;DHT22;51092;50.874;7.024;2022-11-24T02:28:22;7.50;99.90
30889;DHT22;51092;50.874;7.024;2022-11-24T02:29:25;7.50;99.90
30889;DHT22;51092;50.874;7.024;2022-11-24T02:30:30;7.50;99.90
30889;DHT22;51092;50.874;7.024;2022-11-24T02:31:33;7.50;99.90
30889;DHT22;51092;50.874;7.024;2022-11-24T02:32:38;7.60;99.90
30889;DHT22;51092;50.874;7.024;2022-11-24T02:33:41;7.60;99.90
30889;DHT22;51092;50.874;7.024;2022-11-24T02:34:45;7.60;99.90
30889;DHT22;51092;50.874;7.024;2022-11-24T02:35:47;7.60;99.90
30889;DHT22;51092;50.874;7.024;2022-11-24T02:36:49;7.60;99.90
30889;DHT22;51092;50.874;7.024;2022-11-24T02:37:50;7.60;99.90
30889;DHT22;51092;50.874;7.024;2022-11-24T02:38:58;7.60;99.90
30889;DHT22;51092;50.874;7.024;2022-11-24T02:40:00;7.70;99.90
30889;DHT22;51092;50.874;7.024;2022-11-24T02:41:05;7.70;99.90
30889;DHT22;51092;50.874;7.024;2022-11-24T02:42:12;7.60;99.90
30889;DHT22;51092;50.874;7.024;2022-11-24T02:43:24;7.60;99.90
30889;DHT22;51092;50.874;7.024;2022-11-24T02:44:29;7.60;99.90
30889;DHT22;51092;50.874;7.024;2022-11-24T02:45:34;7.60;99.90
30889;DHT22;51092;50.874;7.024;2022-11-24T02:46:37;7.60;99.90
30889;DHT22;51092;50.874;7.024;2022-11-24T02:47:38;7.60;99.90
30889;DHT22;51092;50.874;7.024;2022-11-24T02:48:42;7.60;99.90
30889;DHT22;51092;50.874;7.024;2022-11-24T02:49:44;7.60;99.90
30889;DHT22;51092;50.874;7.024;2022-11-24T02:50:46;7.60;99.90
30889;DHT22;51092;50.874;7.024;2022-11-24T02:51:48;7.60;99.90
30889;DHT22;51092;50.874;7.024;2022-11-24T02:52:50;7.50;99.90
30889;DHT22;51092;50.874;7.024;2022-11-24T02:53:52;7.50;99.90
30889;DHT22;51092;50.874;7.024;2022-11-24T02:54:54;7.50;99.90
30889;DHT22;51092;50.874;7.024;2022-11-24T02:55:56;7.50;99.90
30889;DHT22;51092;50.874;7.024;2022-11-24T02:56:59;7.50;99.90
30889;DHT22;51092;50.874;7.024;2022-11-24T02:58:00;7.50;99.90
30889;DHT22;51092;50.874;7.024;2022-11-24T02:59:04;7.50;99.90
30889;DHT22;51092;50.874;7.024;2022-11-24T03:00:07;7.50;99.90
30889;DHT22;51092;50.874;7.024;2022-11-24T03:01:10;7.50;99.90
30889;DHT22;51092;50.874;7.024;2022-11-24T03:02:12;7.50;99.90
30889;DHT22;51092;50.874;7.024;2022-11-24T03:03:25;7.50;99.90
30889;DHT22;51092;50.874;7.024;2022-11-24T03:04:26;7.50;99.90
30889;DHT22;51092;50.874;7.024;2022-11-24T03:05:29;7.50;99.90
30889;DHT22;51092;50.874;7.024;2022-11-24T03:06:30;7.60;99.90
30889;DHT22;51092;50.874;7.024;2022-11-24T03:07:33;7.60;99.90
30889;DHT22;51092;50.874;7.024;2022-11-24T03:08:34;7.60;99.90
30889;DHT22;51092;50.874;7.024;2022-11-24T03:09:37;7.60;99.90
30889;DHT22;51092;50.874;7.024;2022-11-24T03:10:38;7.60;99.90
30889;DHT22;51092;50.874;7.024;2022-11-24T03:11:40;7.60;99.90
30889;DHT22;51092;50.874;7.024;2022-11-24T03:12:42;7.60;99.90
30889;DHT22;51092;50.874;7.024;2022-11-24T03:13:44;7.60;99.90
30889;DHT22;51092;50.874;7.024;2022-11-24T03:14:46;7.60;99.90
30889;DHT22;51092;50.874;7.024;2022-11-24T03:15:48;7.70;99.90
30889;DHT22;51092;50.874;7.024;2022-11-24T03:16:50;7.70;99.90
30889;DHT22;51092;50.874;7.024;2022-11-24T03:17:56;7.70;99.90
30889;DHT22;51092;50.874;7.024;2022-11-24T03:18:57;7.70;99.90
30889;DHT22;51092;50.874;7.024;2022-11-24T03:20:00;7.70;99.90
30889;DHT22;51092;50.874;7.024;2022-11-24T03:21:04;7.70;99.90
30889;DHT22;51092;50.874;7.024;2022-11-24T03:22:06;7.70;99.90
30889;DHT22;51092;50.874;7.024;2022-11-24T03:23:07;7.80;99.90
30889;DHT22;51092;50.874;7.024;2022-11-24T03:24:09;7.80;99.90
30889;DHT22;51092;50.874;7.024;2022-11-24T03:25:10;7.80;99.90
30889;DHT22;51092;50.874;7.024;2022-11-24T03:26:14;7.80;99.90
30889;DHT22;51092;50.874;7.024;2022-11-24T03:27:16;7.80;99.90
30889;DHT22;51092;50.874;7.024;2022-11-24T03:28:19;7.80;99.90
30889;DHT22;51092;50.874;7.024;2022-11-24T03:29:21;7.80;99.90
30889;DHT22;51092;50.874;7.024;2022-11-24T03:30:25;7.80;99.90
30889;DHT22;51092;50.874;7.024;2022-11-24T03:31:27;7.90;99.90
30889;DHT22;51092;50.874;7.024;2022-11-24T03:32:29;7.90;99.90
30889;DHT22;51092;50.874;7.024;2022-11-24T03:33:30;7.90;99.90
30889;DHT22;51092;50.874;7.024;2022-11-24T03:34:32;8.00;99.90
30889;DHT22;51092;50.874;7.024;2022-11-24T03:35:32;8.00;99.90
30889;DHT22;51092;50.874;7.024;2022-11-24T03:36:38;8.00;99.90
30889;DHT22;51092;50.874;7.024;2022-11-24T03:37:41;8.10;99.90
30889;DHT22;51092;50.874;7.024;2022-11-24T03:38:43;8.20;99.90
30889;DHT22;51092;50.874;7.024;2022-11-24T03:39:46;8.20;99.90
30889;DHT22;51092;50.874;7.024;2022-11-24T03:40:49;8.20;99.90
30889;DHT22;51092;50.874;7.024;2022-11-24T03:41:51;8.30;99.90
30889;DHT22;51092;50.874;7.024;2022-11-24T03:42:53;8.30;99.90
30889;DHT22;51092;50.874;7.024;2022-11-24T03:43:55;8.30;99.90
30889;DHT22;51092;50.874;7.024;2022-11-24T03:44:57;8.30;99.90
30889;DHT22;51092;50.874;7.024;2022-11-24T03:46:00;8.40;99.90
30889;DHT22;51092;50.874;7.024;2022-11-24T03:47:03;8.40;99.90
30889;DHT22;51092;50.874;7.024;2022-11-24T03:48:05;8.30;99.90
30889;DHT22;51092;50.874;7.024;2022-11-24T03:49:09;8.40;99.90
30889;DHT22;51092;50.874;7.024;2022-11-24T03:50:11;8.40;99.90
30889;DHT22;51092;50.874;7.024;2022-11-24T03:51:16;8.40;99.90
30889;DHT22;51092;50.874;7.024;2022-11-24T03:52:17;8.40;99.90
30889;DHT22;51092;50.874;7.024;2022-11-24T03:53:20;8.40;99.90
30889;DHT22;51092;50.874;7.024;2022-11-24T03:54:21;8.40;99.90
30889;DHT22;51092;50.874;7.024;2022-11-24T03:55:24;8.50;99.90
30889;DHT22;51092;50.874;7.024;2022-11-24T03:56:25;8.40;99.90
30889;DHT22;51092;50.874;7.024;2022-11-24T03:57:28;8.40;99.90
30889;DHT22;51092;50.874;7.024;2022-11-24T03:58:30;8.40;99.90
30889;DHT22;51092;50.874;7.024;2022-11-24T03:59:32;8.50;99.90
30889;DHT22;51092;50.874;7.024;2022-11-24T04:00:34;8.50;99.90
30889;DHT22;51092;50.874;7.024;2022-11-24T04:01:38;8.50;99.90
30889;DHT22;51092;50.874;7.024;2022-11-24T04:02:39;8.50;99.90
30889;DHT22;51092;50.874;7.024;2022-11-24T04:03:41;8.40;99.90
30889;DHT22;51092;50.874;7.024;2022-11-24T04:04:43;8.50;99.90
30889;DHT22;51092;50.874;7.024;2022-11-24T04:05:50;8.50;99.90
30889;DHT22;51092;50.874;7.024;2022-11-24T04:06:52;8.50;99.90
30889;DHT22;51092;50.874;7.024;2022-11-24T04:07:54;8.50;99.90
30889;DHT22;51092;50.874;7.024;2022-11-24T04:08:56;8.50;99.90
30889;DHT22;51092;50.874;7.024;2022-11-24T04:09:59;8.50;99.90
30889;DHT22;51092;50.874;7.024;2022-11-24T04:11:00;8.50;99.90
30889;DHT22;51092;50.874;7.024;2022-11-24T04:12:05;8.50;99.90
30889;DHT22;51092;50.874;7.024;2022-11-24T04:13:25;8.50;99.90
30889;DHT22;51092;50.874;7.024;2022-11-24T04:14:27;8.50;99.90
30889;DHT22;51092;50.874;7.024;2022-11-24T04:15:29;8.50;99.90
30889;DHT22;51092;50.874;7.024;2022-11-24T04:16:31;8.50;99.90
30889;DHT22;51092;50.874;7.024;2022-11-24T04:17:34;8.50;99.90
30889;DHT22;51092;50.874;7.024;2022-11-24T04:18:36;8.40;99.90
30889;DHT22;51092;50.874;7.024;2022-11-24T04:19:38;8.40;99.90
30889;DHT22;51092;50.874;7.024;2022-11-24T04:20:41;8.50;99.90
30889;DHT22;51092;50.874;7.024;2022-11-24T04:21:43;8.40;99.90
30889;DHT22;51092;50.874;7.024;2022-11-24T04:22:45;8.50;99.90
30889;DHT22;51092;50.874;7.024;2022-11-24T04:23:47;8.50;99.90
30889;DHT22;51092;50.874;7.024;2022-11-24T04:24:49;8.50;99.90
30889;DHT22;51092;50.874;7.024;2022-11-24T04:25:51;8.50;99.90
30889;DHT22;51092;50.874;7.024;2022-11-24T04:26:55;8.50;99.90
30889;DHT22;51092;50.874;7.024;2022-11-24T04:27:56;8.60;99.90
30889;DHT22;51092;50.874;7.024;2022-11-24T04:28:58;8.50;99.90
30889;DHT22;51092;50.874;7.024;2022-11-24T04:29:59;8.50;99.90
30889;DHT22;51092;50.874;7.024;2022-11-24T04:31:02;8.50;99.90
30889;DHT22;51092;50.874;7.024;2022-11-24T04:32:04;8.50;99.90
30889;DHT22;51092;50.874;7.024;2022-11-24T04:33:08;8.60;99.90
30889;DHT22;51092;50.874;7.024;2022-11-24T04:34:11;8.60;99.90
30889;DHT22;51092;50.874;7.024;2022-11-24T04:35:13;8.60;99.90
30889;DHT22;51092;50.874;7.024;2022-11-24T04:36:17;8.60;99.90
30889;DHT22;51092;50.874;7.024;2022-11-24T04:37:19;8.60;99.90
30889;DHT22;51092;50.874;7.024;2022-11-24T04:38:21;8.70;99.90
30889;DHT22;51092;50.874;7.024;2022-11-24T04:39:23;8.70;99.90
30889;DHT22;51092;50.874;7.024;2022-11-24T04:40:25;8.80;99.90
30889;DHT22;51092;50.874;7.024;2022-11-24T04:41:27;8.80;99.90
30889;DHT22;51092;50.874;7.024;2022-11-24T04:42:30;8.70;99.90
30889;DHT22;51092;50.874;7.024;2022-11-24T04:43:32;8.70;99.90
30889;DHT22;51092;50.874;7.024;2022-11-24T04:44:34;8.70;99.90
30889;DHT22;51092;50.874;7.024;2022-11-24T04:45:36;8.70;99.90
30889;DHT22;51092;50.874;7.024;2022-11-24T04:46:38;8.70;99.90
30889;DHT22;51092;50.874;7.024;2022-11-24T04:47:40;8.70;99.90
30889;DHT22;51092;50.874;7.024;2022-11-24T04:48:43;8.70;99.90
30889;DHT22;51092;50.874;7.024;2022-11-24T04:49:45;8.80;99.90
30889;DHT22;51092;50.874;7.024;2022-11-24T04:50:48;8.80;99.90
30889;DHT22;51092;50.874;7.024;2022-11-24T04:51:50;8.80;99.90
30889;DHT22;51092;50.874;7.024;2022-11-24T04:52:52;8.80;99.90
30889;DHT22;51092;50.874;7.024;2022-11-24T04:53:53;8.80;99.90
30889;DHT22;51092;50.874;7.024;2022-11-24T04:54:56;8.80;99.90
30889;DHT22;51092;50.874;7.024;2022-11-24T04:55:58;8.80;99.90
30889;DHT22;51092;50.874;7.024;2022-11-24T04:57:00;8.80;99.90
30889;DHT22;51092;50.874;7.024;2022-11-24T04:58:02;8.80;99.90
30889;DHT22;51092;50.874;7.024;2022-11-24T04:59:04;8.90;99.90
30889;DHT22;51092;50.874;7.024;2022-11-24T05:00:07;8.90;99.90
30889;DHT22;51092;50.874;7.024;2022-11-24T05:01:10;8.90;99.90
30889;DHT22;51092;50.874;7.024;2022-11-24T05:02:12;9.00;99.90
30889;DHT22;51092;50.874;7.024;2022-11-24T05:03:17;9.00;99.90
30889;DHT22;51092;50.874;7.024;2022-11-24T05:04:20;9.10;99.90
30889;DHT22;51092;50.874;7.024;2022-11-24T05:05:23;9.00;99.90
30889;DHT22;51092;50.874;7.024;2022-11-24T05:06:24;9.10;99.90
30889;DHT22;51092;50.874;7.024;2022-11-24T05:07:27;9.10;99.90
30889;DHT22;51092;50.874;7.024;2022-11-24T05:08:29;9.10;99.90
30889;DHT22;51092;50.874;7.024;2022-11-24T05:09:31;9.20;99.90
30889;DHT22;51092;50.874;7.024;2022-11-24T05:10:33;9.20;99.90
30889;DHT22;51092;50.874;7.024;2022-11-24T05:11:37;9.20;99.90
30889;DHT22;51092;50.874;7.024;2022-11-24T05:12:40;9.20;99.90
30889;DHT22;51092;50.874;7.024;2022-11-24T05:13:42;9.30;99.90
30889;DHT22;51092;50.874;7.024;2022-11-24T05:14:44;9.30;99.90
30889;DHT22;51092;50.874;7.024;2022-11-24T05:15:46;9.30;99.90
30889;DHT22;51092;50.874;7.024;2022-11-24T05:16:48;9.40;99.90
30889;DHT22;51092;50.874;7.024;2022-11-24T05:17:50;9.30;99.90
30889;DHT22;51092;50.874;7.024;2022-11-24T05:18:52;9.30;99.90
30889;DHT22;51092;50.874;7.024;2022-11-24T05:19:55;9.30;99.90
30889;DHT22;51092;50.874;7.024;2022-11-24T05:20:58;9.30;99.90
30889;DHT22;51092;50.874;7.024;2022-11-24T05:22:00;9.30;99.90
30889;DHT22;51092;50.874;7.024;2022-11-24T05:23:05;9.30;99.90
30889;DHT22;51092;50.874;7.024;2022-11-24T05:24:08;9.20;99.90
30889;DHT22;51092;50.874;7.024;2022-11-24T05:25:11;9.10;99.90
30889;DHT22;51092;50.874;7.024;2022-11-24T05:26:13;9.10;99.90
30889;DHT22;51092;50.874;7.024;2022-11-24T05:27:29;9.20;99.90
30889;DHT22;51092;50.874;7.024;2022-11-24T05:28:31;9.10;99.90
30889;DHT22;51092;50.874;7.024;2022-11-24T05:29:33;9.10;99.90
30889;DHT22;51092;50.874;7.024;2022-11-24T05:30:36;9.10;99.90
30889;DHT22;51092;50.874;7.024;2022-11-24T05:31:38;9.10;99.90
30889;DHT22;51092;50.874;7.024;2022-11-24T05:32:39;9.10;99.90
30889;DHT22;51092;50.874;7.024;2022-11-24T05:33:41;9.20;99.90
30889;DHT22;51092;50.874;7.024;2022-11-24T05:34:42;9.20;99.90
30889;DHT22;51092;50.874;7.024;2022-11-24T05:35:47;9.20;99.90
30889;DHT22;51092;50.874;7.024;2022-11-24T05:36:49;9.10;99.90
30889;DHT22;51092;50.874;7.024;2022-11-24T05:37:54;9.20;99.90
30889;DHT22;51092;50.874;7.024;2022-11-24T05:38:58;9.20;99.90
30889;DHT22;51092;50.874;7.024;2022-11-24T05:40:00;9.20;99.90
30889;DHT22;51092;50.874;7.024;2022-11-24T05:41:03;9.20;99.90
30889;DHT22;51092;50.874;7.024;2022-11-24T05:42:07;9.30;99.90
30889;DHT22;51092;50.874;7.024;2022-11-24T05:43:23;9.30;99.90
30889;DHT22;51092;50.874;7.024;2022-11-24T05:44:26;9.30;99.90
30889;DHT22;51092;50.874;7.024;2022-11-24T05:45:27;9.20;99.90
30889;DHT22;51092;50.874;7.024;2022-11-24T05:46:30;9.30;99.90
30889;DHT22;51092;50.874;7.024;2022-11-24T05:47:32;9.30;99.90
30889;DHT22;51092;50.874;7.024;2022-11-24T05:48:34;9.30;99.90
30889;DHT22;51092;50.874;7.024;2022-11-24T05:49:37;9.40;99.90
30889;DHT22;51092;50.874;7.024;2022-11-24T05:50:38;9.50;99.90
30889;DHT22;51092;50.874;7.024;2022-11-24T05:51:42;9.50;99.90
30889;DHT22;51092;50.874;7.024;2022-11-24T05:52:44;9.40;99.90
30889;DHT22;51092;50.874;7.024;2022-11-24T05:53:46;9.40;99.90
30889;DHT22;51092;50.874;7.024;2022-11-24T05:54:48;9.50;99.90
30889;DHT22;51092;50.874;7.024;2022-11-24T05:55:51;9.40;99.90
30889;DHT22;51092;50.874;7.024;2022-11-24T05:56:52;9.40;99.90
30889;DHT22;51092;50.874;7.024;2022-11-24T05:57:57;9.40;99.90
30889;DHT22;51092;50.874;7.024;2022-11-24T05:59:00;9.40;99.90
30889;DHT22;51092;50.874;7.024;2022-11-24T06:00:03;9.40;99.90
30889;DHT22;51092;50.874;7.024;2022-11-24T06:01:06;9.40;99.90
30889;DHT22;51092;50.874;7.024;2022-11-24T06:02:08;9.40;99.90
30889;DHT22;51092;50.874;7.024;2022-11-24T06:03:11;9.50;99.90
30889;DHT22;51092;50.874;7.024;2022-11-24T06:04:12;9.50;99.90
30889;DHT22;51092;50.874;7.024;2022-11-24T06:05:15;9.40;99.90
30889;DHT22;51092;50.874;7.024;2022-11-24T06:06:16;9.40;99.90
30889;DHT22;51092;50.874;7.024;2022-11-24T06:07:19;9.40;99.90
30889;DHT22;51092;50.874;7.024;2022-11-24T06:08:20;9.30;99.90
30889;DHT22;51092;50.874;7.024;2022-11-24T06:09:22;9.30;99.90
30889;DHT22;51092;50.874;7.024;2022-11-24T06:10:24;9.20;99.90
30889;DHT22;51092;50.874;7.024;2022-11-24T06:11:26;9.20;99.90
30889;DHT22;51092;50.874;7.024;2022-11-24T06:12:28;9.20;99.90
30889;DHT22;51092;50.874;7.024;2022-11-24T06:13:30;9.20;99.90
30889;DHT22;51092;50.874;7.024;2022-11-24T06:14:32;9.20;99.90
30889;DHT22;51092;50.874;7.024;2022-11-24T06:15:34;9.10;99.90
30889;DHT22;51092;50.874;7.024;2022-11-24T06:16:37;9.10;99.90
30889;DHT22;51092;50.874;7.024;2022-11-24T06:17:40;9.10;99.90
30889;DHT22;51092;50.874;7.024;2022-11-24T06:18:41;9.00;99.90
30889;DHT22;51092;50.874;7.024;2022-11-24T06:19:44;9.00;99.90
30889;DHT22;51092;50.874;7.024;2022-11-24T06:20:48;9.00;99.90
30889;DHT22;51092;50.874;7.024;2022-11-24T06:21:50;9.00;99.90
30889;DHT22;51092;50.874;7.024;2022-11-24T06:22:53;9.00;99.90
30889;DHT22;51092;50.874;7.024;2022-11-24T06:23:55;9.00;99.90
30889;DHT22;51092;50.874;7.024;2022-11-24T06:24:57;8.90;99.90
30889;DHT22;51092;50.874;7.024;2022-11-24T06:26:00;8.90;99.90
30889;DHT22;51092;50.874;7.024;2022-11-24T06:27:01;9.00;99.90
30889;DHT22;51092;50.874;7.024;2022-11-24T06:28:04;9.00;99.90
30889;DHT22;51092;50.874;7.024;2022-11-24T06:29:06;9.00;99.90
30889;DHT22;51092;50.874;7.024;2022-11-24T06:30:09;9.10;99.90
30889;DHT22;51092;50.874;7.024;2022-11-24T06:31:12;9.10;99.90
30889;DHT22;51092;50.874;7.024;2022-11-24T06:32:14;9.10;99.90
30889;DHT22;51092;50.874;7.024;2022-11-24T06:33:17;9.20;99.90
30889;DHT22;51092;50.874;7.024;2022-11-24T06:34:19;9.20;99.90
30889;DHT22;51092;50.874;7.024;2022-11-24T06:35:22;9.20;99.90
30889;DHT22;51092;50.874;7.024;2022-11-24T06:36:23;9.20;99.90
30889;DHT22;51092;50.874;7.024;2022-11-24T06:37:26;9.10;99.90
30889;DHT22;51092;50.874;7.024;2022-11-24T06:38:30;9.10;99.90
30889;DHT22;51092;50.874;7.024;2022-11-24T06:39:32;9.10;99.90
30889;DHT22;51092;50.874;7.024;2022-11-24T06:40:35;9.00;99.90
30889;DHT22;51092;50.874;7.024;2022-11-24T06:41:36;9.00;99.90
30889;DHT22;51092;50.874;7.024;2022-11-24T06:42:39;9.00;99.90
30889;DHT22;51092;50.874;7.024;2022-11-24T06:43:40;9.00;99.90
30889;DHT22;51092;50.874;7.024;2022-11-24T06:44:44;9.00;99.90
30889;DHT22;51092;50.874;7.024;2022-11-24T06:45:50;9.10;99.90